ADDS METAR Data INFO
IDs: Format: Raw Decoded Include TAF

Data at: 1612 UTC 14 Aug 2018

EGPH 141550Z 24014KT 9999 BKN019 18/16 Q1010
EGPH 141520Z 24014KT 9999 SCT010 BKN022 18/16 Q1010
EGPH 141450Z 24013KT 9999 SCT014 BKN024 18/16 Q1010
EGPH 141420Z 24014KT 9999 BKN015 19/16 Q1010
EGPH 141350Z 24014KT 9999 VCSH BKN022 19/16 Q1010
EGPH 141320Z 24012KT 9999 BKN022 19/16 Q1010
EGPH 141250Z 24013KT 9999 BKN022 19/16 Q1010
EGPH 141220Z 25009KT 9999 FEW010 BKN038 17/16 Q1010
EGPH 141150Z 24009KT 9999 FEW014 SCT042 17/17 Q1010
EGPH 141120Z 23010KT 9000 -RA FEW030 16/15 Q1010
EGPH 141050Z 23011KT 7000 -RA FEW013 BKN045 15/15 Q1011
EGPH 141020Z 25010KT 9999 6000NW -RA OVC016 16/14 Q1011
EGPH 140950Z 25009KT 9999 SCT018 17/14 Q1011
EGPH 140920Z 24011KT 9999 SCT014 17/14 Q1010
EGPH 140850Z 24011KT 9999 FEW010 BKN018 16/14 Q1010
EGPH 140820Z 24009KT 9999 FEW010 BKN022 15/14 Q1010
EGPH 140750Z 24008KT 9999 BKN010 15/14 Q1010
EGPH 140720Z 25007KT 9999 BKN011 15/14 Q1010
EGPH 140650Z 25007KT 9999 FEW011 SCT041 15/14 Q1010
EGPH 140620Z 24006KT 9999 SCT015 14/14 Q1010
EGPH 140550Z 25005KT 9999 FEW016 SCT035 14/14 Q1010
EGPH 140520Z 24006KT 9999 BKN026 14/14 Q1010
EGPH 140450Z 24005KT 9999 BKN038 13/13 Q1010
EGPH 140420Z 24005KT 9999 FEW013 BKN024 13/13 Q1010
EGPH 140350Z 23003KT 9999 FEW018 BKN027 13/13 Q1010
EGPH 140320Z 25006KT 9999 BKN018 OVC031 14/13 Q1010
EGPH 140250Z 24007KT 9999 OVC032 14/13 Q1010
EGPH 140220Z 23007KT 9999 OVC028 13/13 Q1010
EGPH 140150Z 23008KT 9999 OVC030 13/13 Q1010
EGPH 140120Z 23010KT 9999 FEW033 13/13 Q1010
EGPH 140050Z 24007KT 9999 BKN042 13/13 Q1011
EGPH 140020Z 24006KT 9999 BKN043 13/13 Q1011
EGPH 132350Z 23006KT 9999 FEW010 OVC045 14/14 Q1010
EGPH 132320Z 23003KT 9999 BKN011 15/15 Q1010
EGPH 132250Z 24004KT 9999 SCT015 BKN030 OVC044 15/15 Q1010
EGPH 132220Z 21005KT 9000 OVC016 15/15 Q1010
EGPH 132150Z VRB02KT 8000 OVC020 15/15 Q1010
EGPH 132120Z 08001KT 3300 BR SCT004 OVC020 14/14 Q1010
EGPH 132050Z 07003KT 8000 -DZ BKN005 OVC016 14/14 Q1010
EGPH 132020Z VRB03KT 8000 FEW005 BKN010 15/15 Q1010
EGPH 131950Z 09004KT 050V160 9000 FEW006 BKN010 15/15 Q1009
EGPH 131920Z 09004KT 060V120 9000 FEW005 BKN010 15/15 Q1009
EGPH 131850Z 08004KT 9000 SCT004 BKN010 15/15 Q1009
EGPH 131820Z 07005KT 5000 -DZ BKN004 BKN011 15/15 Q1009
EGPH 131750Z 06005KT 4500 VCSH BKN004 BKN008 15/15 Q1009
EGPH 131720Z 07005KT 5000 -RA BKN004 OVC012 15/15 Q1009 REDZ
EGPH 131650Z VRB03KT 2600 DZ BKN003 BKN009 15/15 Q1009
EGPH 131620Z 05004KT 020V100 3000 -RADZ BKN004 BKN008 15/15 Q1009
EGPH 131550Z 06005KT 4600 -DZ SCT004 BKN009 16/16 Q1008
EGPH 131520Z 05006KT 7000 VCSH SCT004 BKN013 16/16 Q1008
EGPH 131450Z 05005KT 4400 -DZ SCT005 BKN012 16/16 Q1008
EGPH 131420Z 03005KT 2600 -DZ BKN004 OVC008 15/15 Q1008 REDZ
EGPH 131350Z 02005KT 340V050 2200 DZ OVC004 15/15 Q1008
EGPH 131320Z 03005KT 350V060 3500 -DZ BKN005 15/15 Q1008
EGPH 131250Z 03006KT 3500 -DZ BKN003 BKN005 16/16 Q1008
EGPH 131220Z 01004KT 320V070 4500 2000E -DZ BKN003 OVC005 16/16 Q1008
EGPH 131150Z VRB03KT 3800 -DZ BKN003 OVC006 15/15 Q1008
EGPH 131120Z 34004KT 290V020 3500 -DZ BKN003 OVC006 15/15 Q1008
EGPH 131050Z VRB03KT 2500 -RADZ OVC003 15/15 Q1008
EGPH 131020Z VRB03KT 2500 -DZ OVC003 15/15 Q1007
EGPH 130950Z VRB03KT 3500 -DZ OVC003 15/15 Q1007
EGPH 130920Z 03004KT 4500 -DZ BKN004 OVC006 14/14 Q1007
EGPH 130850Z 02004KT 340V050 2500 -DZ BKN002 OVC004 14/14 Q1007
EGPH 130820Z VRB03KT 2000 -DZ BKN002 OVC004 14/14 Q1007
EGPH 130750Z VRB03KT 2000 -DZ OVC002 14/14 Q1007
EGPH 130720Z VRB02KT 2000 -DZ OVC002 14/14 Q1007
EGPH 130650Z VRB02KT 2400 -DZ OVC002 14/14 Q1007
EGPH 130620Z VRB02KT 2000 -DZ OVC002 14/14 Q1007
EGPH 130550Z VRB02KT 2000 -DZ OVC002 14/14 Q1006 REDZ
EGPH 130520Z VRB03KT 1400 R06/P1500 DZ OVC002 14/14 Q1006 RERA
EGPH 130450Z 03003KT 1700 RADZ OVC002 13/13 Q1006
EGPH 130420Z 03004KT 1600 DZ OVC002 14/14 Q1006